sensor_id;sensor_type;location;lat;lon;timestamp;P1;durP1;ratioP1;P2;durP2;ratioP2
76167;SDS011;64927;48.214;16.378;2022-11-20T00:01:09;35.03;;;22.50;;
76167;SDS011;64927;48.214;16.378;2022-11-20T00:03:43;34.35;;;21.45;;
76167;SDS011;64927;48.214;16.378;2022-11-20T00:06:12;42.60;;;22.98;;
76167;SDS011;64927;48.214;16.378;2022-11-20T00:08:40;39.28;;;24.08;;
76167;SDS011;64927;48.214;16.378;2022-11-20T00:11:08;34.58;;;22.23;;
76167;SDS011;64927;48.214;16.378;2022-11-20T00:13:37;32.75;;;21.92;;
76167;SDS011;64927;48.214;16.378;2022-11-20T00:16:04;33.08;;;21.73;;
76167;SDS011;64927;48.214;16.378;2022-11-20T00:18:33;34.78;;;21.85;;
76167;SDS011;64927;48.214;16.378;2022-11-20T00:21:10;33.20;;;22.38;;
76167;SDS011;64927;48.214;16.378;2022-11-20T00:23:40;35.53;;;23.38;;
76167;SDS011;64927;48.214;16.378;2022-11-20T00:26:07;35.97;;;23.23;;
76167;SDS011;64927;48.214;16.378;2022-11-20T00:28:37;33.10;;;20.85;;
76167;SDS011;64927;48.214;16.378;2022-11-20T00:31:07;32.65;;;21.35;;
76167;SDS011;64927;48.214;16.378;2022-11-20T00:33:37;40.72;;;24.17;;
76167;SDS011;64927;48.214;16.378;2022-11-20T00:36:09;34.65;;;22.23;;
76167;SDS011;64927;48.214;16.378;2022-11-20T00:38:39;32.47;;;21.60;;
76167;SDS011;64927;48.214;16.378;2022-11-20T00:41:06;34.95;;;22.85;;
76167;SDS011;64927;48.214;16.378;2022-11-20T00:43:33;36.53;;;22.67;;
76167;SDS011;64927;48.214;16.378;2022-11-20T00:46:00;36.83;;;21.38;;
76167;SDS011;64927;48.214;16.378;2022-11-20T00:48:27;32.72;;;22.10;;
76167;SDS011;64927;48.214;16.378;2022-11-20T00:50:53;35.80;;;22.25;;
76167;SDS011;64927;48.214;16.378;2022-11-20T00:53:20;30.92;;;20.13;;
76167;SDS011;64927;48.214;16.378;2022-11-20T00:55:56;34.65;;;21.38;;
76167;SDS011;64927;48.214;16.378;2022-11-20T00:58:29;32.17;;;21.33;;
76167;SDS011;64927;48.214;16.378;2022-11-20T01:01:03;32.20;;;21.10;;
76167;SDS011;64927;48.214;16.378;2022-11-20T01:03:43;33.22;;;21.38;;
76167;SDS011;64927;48.214;16.378;2022-11-20T01:06:17;34.25;;;21.83;;
76167;SDS011;64927;48.214;16.378;2022-11-20T01:08:49;35.00;;;21.70;;
76167;SDS011;64927;48.214;16.378;2022-11-20T01:11:21;34.05;;;21.33;;
76167;SDS011;64927;48.214;16.378;2022-11-20T01:13:48;35.17;;;21.50;;
76167;SDS011;64927;48.214;16.378;2022-11-20T01:16:16;35.33;;;21.58;;
76167;SDS011;64927;48.214;16.378;2022-11-20T01:18:44;33.55;;;21.60;;
76167;SDS011;64927;48.214;16.378;2022-11-20T01:21:16;34.50;;;21.27;;
76167;SDS011;64927;48.214;16.378;2022-11-20T01:23:44;36.22;;;22.52;;
76167;SDS011;64927;48.214;16.378;2022-11-20T01:26:12;33.30;;;22.92;;
76167;SDS011;64927;48.214;16.378;2022-11-20T01:28:42;35.08;;;21.88;;
76167;SDS011;64927;48.214;16.378;2022-11-20T01:31:16;35.63;;;22.75;;
76167;SDS011;64927;48.214;16.378;2022-11-20T01:33:50;37.10;;;22.15;;
76167;SDS011;64927;48.214;16.378;2022-11-20T01:36:18;34.17;;;21.83;;
76167;SDS011;64927;48.214;16.378;2022-11-20T01:38:45;36.65;;;23.48;;
76167;SDS011;64927;48.214;16.378;2022-11-20T01:41:11;38.88;;;23.42;;
76167;SDS011;64927;48.214;16.378;2022-11-20T01:44:00;31.73;;;20.95;;
76167;SDS011;64927;48.214;16.378;2022-11-20T01:46:26;34.13;;;22.10;;
76167;SDS011;64927;48.214;16.378;2022-11-20T01:48:57;38.75;;;24.13;;
76167;SDS011;64927;48.214;16.378;2022-11-20T01:51:39;37.83;;;24.33;;
76167;SDS011;64927;48.214;16.378;2022-11-20T01:54:11;36.20;;;22.83;;
76167;SDS011;64927;48.214;16.378;2022-11-20T01:56:45;40.90;;;24.70;;
76167;SDS011;64927;48.214;16.378;2022-11-20T01:59:16;36.35;;;24.00;;
76167;SDS011;64927;48.214;16.378;2022-11-20T02:01:44;38.22;;;23.85;;
76167;SDS011;64927;48.214;16.378;2022-11-20T02:04:10;34.13;;;21.58;;
76167;SDS011;64927;48.214;16.378;2022-11-20T02:06:44;37.63;;;23.52;;
76167;SDS011;64927;48.214;16.378;2022-11-20T02:09:13;35.35;;;23.52;;
76167;SDS011;64927;48.214;16.378;2022-11-20T02:11:40;37.25;;;22.33;;
76167;SDS011;64927;48.214;16.378;2022-11-20T02:14:05;37.00;;;22.48;;
76167;SDS011;64927;48.214;16.378;2022-11-20T02:16:35;35.55;;;23.40;;
76167;SDS011;64927;48.214;16.378;2022-11-20T02:19:05;36.85;;;23.27;;
76167;SDS011;64927;48.214;16.378;2022-11-20T02:21:38;37.35;;;24.73;;
76167;SDS011;64927;48.214;16.378;2022-11-20T02:24:19;34.83;;;22.63;;
76167;SDS011;64927;48.214;16.378;2022-11-20T02:29:18;35.00;;;23.20;;
76167;SDS011;64927;48.214;16.378;2022-11-20T02:31:52;38.53;;;23.03;;
76167;SDS011;64927;48.214;16.378;2022-11-20T02:34:20;33.22;;;23.00;;
76167;SDS011;64927;48.214;16.378;2022-11-20T02:36:45;36.55;;;23.50;;
76167;SDS011;64927;48.214;16.378;2022-11-20T02:39:13;35.80;;;23.90;;
76167;SDS011;64927;48.214;16.378;2022-11-20T02:41:42;36.28;;;23.25;;
76167;SDS011;64927;48.214;16.378;2022-11-20T02:44:09;38.10;;;23.00;;
76167;SDS011;64927;48.214;16.378;2022-11-20T02:46:34;34.95;;;23.35;;
76167;SDS011;64927;48.214;16.378;2022-11-20T02:49:05;36.42;;;23.88;;
76167;SDS011;64927;48.214;16.378;2022-11-20T02:51:31;39.28;;;24.67;;
76167;SDS011;64927;48.214;16.378;2022-11-20T02:53:57;36.60;;;23.17;;
76167;SDS011;64927;48.214;16.378;2022-11-20T02:56:23;37.53;;;23.42;;
76167;SDS011;64927;48.214;16.378;2022-11-20T02:58:49;34.13;;;22.63;;
76167;SDS011;64927;48.214;16.378;2022-11-20T03:01:14;37.70;;;23.83;;
76167;SDS011;64927;48.214;16.378;2022-11-20T03:03:40;40.10;;;24.67;;
76167;SDS011;64927;48.214;16.378;2022-11-20T03:06:08;39.45;;;24.98;;
76167;SDS011;64927;48.214;16.378;2022-11-20T03:08:34;40.90;;;24.90;;
76167;SDS011;64927;48.214;16.378;2022-11-20T03:11:06;35.67;;;23.33;;
76167;SDS011;64927;48.214;16.378;2022-11-20T03:13:33;39.17;;;24.77;;
76167;SDS011;64927;48.214;16.378;2022-11-20T03:16:04;39.13;;;24.70;;
76167;SDS011;64927;48.214;16.378;2022-11-20T03:18:31;46.28;;;24.65;;
76167;SDS011;64927;48.214;16.378;2022-11-20T03:20:57;34.92;;;22.38;;
76167;SDS011;64927;48.214;16.378;2022-11-20T03:23:28;39.35;;;25.85;;
76167;SDS011;64927;48.214;16.378;2022-11-20T03:25:55;36.88;;;23.45;;
76167;SDS011;64927;48.214;16.378;2022-11-20T03:28:20;38.67;;;24.80;;
76167;SDS011;64927;48.214;16.378;2022-11-20T03:30:46;39.05;;;24.90;;
76167;SDS011;64927;48.214;16.378;2022-11-20T03:33:11;38.40;;;24.45;;
76167;SDS011;64927;48.214;16.378;2022-11-20T03:35:37;42.60;;;27.48;;
76167;SDS011;64927;48.214;16.378;2022-11-20T03:38:05;39.90;;;25.83;;
76167;SDS011;64927;48.214;16.378;2022-11-20T03:40:31;40.25;;;25.60;;
76167;SDS011;64927;48.214;16.378;2022-11-20T03:42:58;39.85;;;24.27;;
76167;SDS011;64927;48.214;16.378;2022-11-20T03:45:24;40.30;;;26.35;;
76167;SDS011;64927;48.214;16.378;2022-11-20T03:47:49;43.72;;;26.40;;
76167;SDS011;64927;48.214;16.378;2022-11-20T03:50:15;40.92;;;25.77;;
76167;SDS011;64927;48.214;16.378;2022-11-20T03:52:41;42.10;;;26.13;;
76167;SDS011;64927;48.214;16.378;2022-11-20T03:55:07;39.20;;;25.10;;
76167;SDS011;64927;48.214;16.378;2022-11-20T03:57:33;40.00;;;24.45;;
76167;SDS011;64927;48.214;16.378;2022-11-20T03:59:58;38.92;;;25.58;;
76167;SDS011;64927;48.214;16.378;2022-11-20T04:02:24;39.35;;;24.65;;
76167;SDS011;64927;48.214;16.378;2022-11-20T04:04:50;37.53;;;24.98;;
76167;SDS011;64927;48.214;16.378;2022-11-20T04:07:15;39.75;;;24.42;;
76167;SDS011;64927;48.214;16.378;2022-11-20T04:09:43;36.97;;;25.30;;
76167;SDS011;64927;48.214;16.378;2022-11-20T04:12:09;38.47;;;24.48;;
76167;SDS011;64927;48.214;16.378;2022-11-20T04:14:37;38.97;;;25.27;;
76167;SDS011;64927;48.214;16.378;2022-11-20T04:17:03;41.20;;;24.08;;
76167;SDS011;64927;48.214;16.378;2022-11-20T04:19:29;40.83;;;25.85;;
76167;SDS011;64927;48.214;16.378;2022-11-20T04:21:54;38.85;;;25.10;;
76167;SDS011;64927;48.214;16.378;2022-11-20T04:24:20;40.75;;;25.30;;
76167;SDS011;64927;48.214;16.378;2022-11-20T04:26:45;39.80;;;26.95;;
76167;SDS011;64927;48.214;16.378;2022-11-20T04:29:13;43.50;;;26.42;;
76167;SDS011;64927;48.214;16.378;2022-11-20T04:31:39;37.50;;;25.65;;
76167;SDS011;64927;48.214;16.378;2022-11-20T04:34:05;44.25;;;26.05;;
76167;SDS011;64927;48.214;16.378;2022-11-20T04:36:32;42.70;;;25.35;;
76167;SDS011;64927;48.214;16.378;2022-11-20T04:38:59;40.33;;;26.25;;
76167;SDS011;64927;48.214;16.378;2022-11-20T04:41:27;40.20;;;25.70;;
76167;SDS011;64927;48.214;16.378;2022-11-20T04:43:55;38.92;;;25.63;;
76167;SDS011;64927;48.214;16.378;2022-11-20T04:46:27;39.88;;;25.02;;
76167;SDS011;64927;48.214;16.378;2022-11-20T04:48:53;36.55;;;25.02;;
76167;SDS011;64927;48.214;16.378;2022-11-20T04:51:19;39.53;;;25.15;;
76167;SDS011;64927;48.214;16.378;2022-11-20T04:53:45;43.38;;;26.88;;
76167;SDS011;64927;48.214;16.378;2022-11-20T04:56:11;40.28;;;26.30;;
76167;SDS011;64927;48.214;16.378;2022-11-20T04:58:38;41.25;;;27.13;;
76167;SDS011;64927;48.214;16.378;2022-11-20T05:01:07;40.30;;;26.55;;
76167;SDS011;64927;48.214;16.378;2022-11-20T05:03:42;42.47;;;26.00;;
76167;SDS011;64927;48.214;16.378;2022-11-20T05:06:15;39.33;;;25.17;;
76167;SDS011;64927;48.214;16.378;2022-11-20T05:08:42;39.13;;;25.25;;
76167;SDS011;64927;48.214;16.378;2022-11-20T05:11:12;42.60;;;26.30;;
76167;SDS011;64927;48.214;16.378;2022-11-20T05:13:39;39.10;;;24.95;;
76167;SDS011;64927;48.214;16.378;2022-11-20T05:16:12;40.10;;;24.90;;
76167;SDS011;64927;48.214;16.378;2022-11-20T05:18:39;44.80;;;26.58;;
76167;SDS011;64927;48.214;16.378;2022-11-20T05:21:06;38.53;;;25.23;;
76167;SDS011;64927;48.214;16.378;2022-11-20T05:23:34;42.30;;;26.92;;
76167;SDS011;64927;48.214;16.378;2022-11-20T05:26:01;41.67;;;26.67;;
76167;SDS011;64927;48.214;16.378;2022-11-20T05:28:28;40.25;;;26.15;;
76167;SDS011;64927;48.214;16.378;2022-11-20T05:30:54;40.28;;;26.13;;
76167;SDS011;64927;48.214;16.378;2022-11-20T05:33:20;40.85;;;24.90;;
76167;SDS011;64927;48.214;16.378;2022-11-20T05:35:50;38.72;;;24.40;;
76167;SDS011;64927;48.214;16.378;2022-11-20T05:38:16;40.53;;;26.02;;
76167;SDS011;64927;48.214;16.378;2022-11-20T05:40:41;38.78;;;25.70;;
76167;SDS011;64927;48.214;16.378;2022-11-20T05:43:07;38.35;;;25.17;;
76167;SDS011;64927;48.214;16.378;2022-11-20T05:45:35;37.15;;;25.05;;
76167;SDS011;64927;48.214;16.378;2022-11-20T05:48:01;42.95;;;25.92;;
76167;SDS011;64927;48.214;16.378;2022-11-20T05:50:27;42.33;;;25.63;;
76167;SDS011;64927;48.214;16.378;2022-11-20T05:52:57;36.40;;;24.88;;
76167;SDS011;64927;48.214;16.378;2022-11-20T05:55:27;37.30;;;25.73;;
76167;SDS011;64927;48.214;16.378;2022-11-20T05:57:53;42.30;;;26.40;;
76167;SDS011;64927;48.214;16.378;2022-11-20T06:00:19;40.42;;;26.10;;
76167;SDS011;64927;48.214;16.378;2022-11-20T06:02:45;43.03;;;27.42;;
76167;SDS011;64927;48.214;16.378;2022-11-20T06:05:11;39.63;;;25.38;;
76167;SDS011;64927;48.214;16.378;2022-11-20T06:07:36;41.78;;;26.27;;
76167;SDS011;64927;48.214;16.378;2022-11-20T06:10:02;40.45;;;27.25;;
76167;SDS011;64927;48.214;16.378;2022-11-20T06:12:31;45.22;;;28.95;;
76167;SDS011;64927;48.214;16.378;2022-11-20T06:15:03;39.85;;;26.58;;
76167;SDS011;64927;48.214;16.378;2022-11-20T06:17:29;42.90;;;27.75;;
76167;SDS011;64927;48.214;16.378;2022-11-20T06:19:57;43.22;;;27.10;;
76167;SDS011;64927;48.214;16.378;2022-11-20T06:22:23;44.95;;;28.20;;
76167;SDS011;64927;48.214;16.378;2022-11-20T06:24:48;42.70;;;26.42;;
76167;SDS011;64927;48.214;16.378;2022-11-20T06:27:17;43.90;;;27.90;;
76167;SDS011;64927;48.214;16.378;2022-11-20T06:29:43;43.13;;;27.85;;
76167;SDS011;64927;48.214;16.378;2022-11-20T06:32:09;43.83;;;28.13;;
76167;SDS011;64927;48.214;16.378;2022-11-20T06:34:34;46.88;;;27.77;;
76167;SDS011;64927;48.214;16.378;2022-11-20T06:37:02;40.70;;;26.58;;
76167;SDS011;64927;48.214;16.378;2022-11-20T06:39:28;46.97;;;28.02;;
76167;SDS011;64927;48.214;16.378;2022-11-20T06:41:53;44.13;;;27.33;;
76167;SDS011;64927;48.214;16.378;2022-11-20T06:44:19;40.70;;;25.75;;
76167;SDS011;64927;48.214;16.378;2022-11-20T06:46:47;49.92;;;30.15;;
76167;SDS011;64927;48.214;16.378;2022-11-20T06:49:12;43.85;;;28.05;;
76167;SDS011;64927;48.214;16.378;2022-11-20T06:51:40;40.47;;;27.40;;
76167;SDS011;64927;48.214;16.378;2022-11-20T06:54:06;45.10;;;27.02;;
76167;SDS011;64927;48.214;16.378;2022-11-20T06:56:32;41.95;;;27.25;;
76167;SDS011;64927;48.214;16.378;2022-11-20T06:58:57;44.15;;;28.27;;
76167;SDS011;64927;48.214;16.378;2022-11-20T07:01:23;45.58;;;28.30;;
76167;SDS011;64927;48.214;16.378;2022-11-20T07:03:49;44.42;;;28.98;;
76167;SDS011;64927;48.214;16.378;2022-11-20T07:06:15;44.13;;;27.13;;
76167;SDS011;64927;48.214;16.378;2022-11-20T07:08:41;46.35;;;27.73;;
76167;SDS011;64927;48.214;16.378;2022-11-20T07:11:07;44.58;;;28.58;;
76167;SDS011;64927;48.214;16.378;2022-11-20T07:13:33;43.13;;;26.83;;
76167;SDS011;64927;48.214;16.378;2022-11-20T07:15:59;44.55;;;27.58;;
76167;SDS011;64927;48.214;16.378;2022-11-20T07:18:29;44.25;;;29.02;;
76167;SDS011;64927;48.214;16.378;2022-11-20T07:20:54;40.60;;;27.00;;
76167;SDS011;64927;48.214;16.378;2022-11-20T07:23:20;46.90;;;28.42;;
76167;SDS011;64927;48.214;16.378;2022-11-20T07:25:46;47.92;;;28.27;;
76167;SDS011;64927;48.214;16.378;2022-11-20T07:28:12;41.92;;;27.55;;
76167;SDS011;64927;48.214;16.378;2022-11-20T07:30:38;44.13;;;28.35;;
76167;SDS011;64927;48.214;16.378;2022-11-20T07:33:04;45.47;;;29.10;;
76167;SDS011;64927;48.214;16.378;2022-11-20T07:35:30;48.50;;;30.27;;
76167;SDS011;64927;48.214;16.378;2022-11-20T07:37:55;45.90;;;30.13;;
76167;SDS011;64927;48.214;16.378;2022-11-20T07:40:25;49.60;;;31.00;;
76167;SDS011;64927;48.214;16.378;2022-11-20T07:42:52;51.63;;;29.15;;
76167;SDS011;64927;48.214;16.378;2022-11-20T07:45:23;47.05;;;28.63;;
76167;SDS011;64927;48.214;16.378;2022-11-20T07:47:51;48.80;;;31.90;;
76167;SDS011;64927;48.214;16.378;2022-11-20T07:50:17;43.35;;;28.52;;
76167;SDS011;64927;48.214;16.378;2022-11-20T07:52:46;51.50;;;31.63;;
76167;SDS011;64927;48.214;16.378;2022-11-20T07:55:12;43.13;;;27.85;;
76167;SDS011;64927;48.214;16.378;2022-11-20T07:57:38;51.25;;;29.88;;
76167;SDS011;64927;48.214;16.378;2022-11-20T08:00:05;48.13;;;28.85;;
76167;SDS011;64927;48.214;16.378;2022-11-20T08:02:36;45.30;;;28.98;;
76167;SDS011;64927;48.214;16.378;2022-11-20T08:05:03;47.50;;;30.23;;
76167;SDS011;64927;48.214;16.378;2022-11-20T08:07:34;45.17;;;29.73;;
76167;SDS011;64927;48.214;16.378;2022-11-20T08:10:01;46.25;;;28.80;;
76167;SDS011;64927;48.214;16.378;2022-11-20T08:12:27;48.72;;;30.13;;
76167;SDS011;64927;48.214;16.378;2022-11-20T08:15:11;47.25;;;31.08;;
76167;SDS011;64927;48.214;16.378;2022-11-20T08:17:39;48.78;;;29.42;;
76167;SDS011;64927;48.214;16.378;2022-11-20T08:20:05;48.88;;;29.83;;
76167;SDS011;64927;48.214;16.378;2022-11-20T08:22:34;46.63;;;30.15;;
76167;SDS011;64927;48.214;16.378;2022-11-20T08:25:00;48.17;;;31.33;;
76167;SDS011;64927;48.214;16.378;2022-11-20T08:27:25;51.47;;;31.33;;
76167;SDS011;64927;48.214;16.378;2022-11-20T08:29:51;50.28;;;31.10;;
76167;SDS011;64927;48.214;16.378;2022-11-20T08:32:17;43.20;;;28.83;;
76167;SDS011;64927;48.214;16.378;2022-11-20T08:34:42;49.80;;;31.30;;
76167;SDS011;64927;48.214;16.378;2022-11-20T08:37:08;45.55;;;28.75;;
76167;SDS011;64927;48.214;16.378;2022-11-20T08:39:36;49.03;;;29.27;;
76167;SDS011;64927;48.214;16.378;2022-11-20T08:42:02;45.30;;;29.77;;
76167;SDS011;64927;48.214;16.378;2022-11-20T08:44:31;46.25;;;29.80;;
76167;SDS011;64927;48.214;16.378;2022-11-20T08:46:57;47.15;;;29.83;;
76167;SDS011;64927;48.214;16.378;2022-11-20T08:49:22;43.45;;;29.27;;
76167;SDS011;64927;48.214;16.378;2022-11-20T08:51:50;47.30;;;30.30;;
76167;SDS011;64927;48.214;16.378;2022-11-20T08:54:18;48.05;;;30.55;;
76167;SDS011;64927;48.214;16.378;2022-11-20T08:56:46;49.03;;;31.15;;
76167;SDS011;64927;48.214;16.378;2022-11-20T08:59:12;47.78;;;30.48;;
76167;SDS011;64927;48.214;16.378;2022-11-20T09:01:40;48.60;;;32.22;;
76167;SDS011;64927;48.214;16.378;2022-11-20T09:04:08;43.13;;;28.77;;
76167;SDS011;64927;48.214;16.378;2022-11-20T09:06:34;48.25;;;28.98;;
76167;SDS011;64927;48.214;16.378;2022-11-20T09:08:59;48.55;;;31.45;;
76167;SDS011;64927;48.214;16.378;2022-11-20T09:11:25;46.35;;;31.30;;
76167;SDS011;64927;48.214;16.378;2022-11-20T09:13:51;45.28;;;30.67;;
76167;SDS011;64927;48.214;16.378;2022-11-20T09:16:16;48.63;;;30.20;;
76167;SDS011;64927;48.214;16.378;2022-11-20T09:18:42;49.72;;;29.23;;
76167;SDS011;64927;48.214;16.378;2022-11-20T09:21:11;46.63;;;30.23;;
76167;SDS011;64927;48.214;16.378;2022-11-20T09:23:38;48.20;;;31.15;;
76167;SDS011;64927;48.214;16.378;2022-11-20T09:26:05;45.00;;;29.40;;
76167;SDS011;64927;48.214;16.378;2022-11-20T09:28:40;48.08;;;29.95;;
76167;SDS011;64927;48.214;16.378;2022-11-20T09:31:12;48.28;;;31.23;;
76167;SDS011;64927;48.214;16.378;2022-11-20T09:33:50;51.80;;;30.80;;
76167;SDS011;64927;48.214;16.378;2022-11-20T09:36:16;49.45;;;29.90;;
76167;SDS011;64927;48.214;16.378;2022-11-20T09:38:43;49.63;;;29.73;;
76167;SDS011;64927;48.214;16.378;2022-11-20T09:47:01;55.00;;;33.72;;
76167;SDS011;64927;48.214;16.378;2022-11-20T09:54:55;52.40;;;32.03;;
76167;SDS011;64927;48.214;16.378;2022-11-20T09:57:23;52.58;;;33.13;;
76167;SDS011;64927;48.214;16.378;2022-11-20T09:59:56;50.85;;;31.95;;
76167;SDS011;64927;48.214;16.378;2022-11-20T10:02:28;51.70;;;32.67;;
76167;SDS011;64927;48.214;16.378;2022-11-20T10:05:09;53.80;;;30.67;;
76167;SDS011;64927;48.214;16.378;2022-11-20T10:08:22;47.85;;;31.23;;
76167;SDS011;64927;48.214;16.378;2022-11-20T10:10:28;52.03;;;33.38;;
76167;SDS011;64927;48.214;16.378;2022-11-20T10:13:11;49.60;;;31.67;;
76167;SDS011;64927;48.214;16.378;2022-11-20T10:15:58;49.65;;;32.58;;
76167;SDS011;64927;48.214;16.378;2022-11-20T10:18:36;58.85;;;36.33;;
76167;SDS011;64927;48.214;16.378;2022-11-20T10:21:26;54.38;;;34.33;;
76167;SDS011;64927;48.214;16.378;2022-11-20T10:24:31;50.20;;;32.50;;
76167;SDS011;64927;48.214;16.378;2022-11-20T10:29:34;51.65;;;31.83;;
76167;SDS011;64927;48.214;16.378;2022-11-20T10:32:07;50.25;;;32.78;;
76167;SDS011;64927;48.214;16.378;2022-11-20T10:37:23;50.47;;;31.38;;
76167;SDS011;64927;48.214;16.378;2022-11-20T10:45:15;55.58;;;35.33;;
76167;SDS011;64927;48.214;16.378;2022-11-20T10:47:46;48.30;;;31.17;;
76167;SDS011;64927;48.214;16.378;2022-11-20T10:50:14;50.47;;;31.05;;
76167;SDS011;64927;48.214;16.378;2022-11-20T10:52:56;47.55;;;29.60;;
76167;SDS011;64927;48.214;16.378;2022-11-20T11:01:04;50.30;;;32.13;;
76167;SDS011;64927;48.214;16.378;2022-11-20T11:03:31;48.78;;;32.28;;
76167;SDS011;64927;48.214;16.378;2022-11-20T11:08:53;47.65;;;33.08;;
76167;SDS011;64927;48.214;16.378;2022-11-20T11:11:28;45.45;;;30.38;;
76167;SDS011;64927;48.214;16.378;2022-11-20T11:14:04;48.45;;;31.13;;
76167;SDS011;64927;48.214;16.378;2022-11-20T11:16:33;46.40;;;31.45;;
76167;SDS011;64927;48.214;16.378;2022-11-20T11:19:05;51.80;;;32.13;;
76167;SDS011;64927;48.214;16.378;2022-11-20T11:21:38;47.60;;;31.15;;
76167;SDS011;64927;48.214;16.378;2022-11-20T11:24:22;50.50;;;33.30;;
76167;SDS011;64927;48.214;16.378;2022-11-20T11:26:55;48.63;;;31.17;;
76167;SDS011;64927;48.214;16.378;2022-11-20T11:29:34;54.58;;;31.73;;
76167;SDS011;64927;48.214;16.378;2022-11-20T11:32:18;49.60;;;32.17;;
76167;SDS011;64927;48.214;16.378;2022-11-20T11:34:58;46.60;;;32.05;;
76167;SDS011;64927;48.214;16.378;2022-11-20T11:37:31;44.33;;;30.02;;
76167;SDS011;64927;48.214;16.378;2022-11-20T11:40:00;46.17;;;30.70;;
76167;SDS011;64927;48.214;16.378;2022-11-20T11:42:26;45.72;;;31.38;;
76167;SDS011;64927;48.214;16.378;2022-11-20T11:44:54;45.72;;;30.77;;
76167;SDS011;64927;48.214;16.378;2022-11-20T11:47:31;47.30;;;30.60;;
76167;SDS011;64927;48.214;16.378;2022-11-20T11:50:22;44.60;;;32.00;;
76167;SDS011;64927;48.214;16.378;2022-11-20T11:53:12;45.60;;;31.25;;
76167;SDS011;64927;48.214;16.378;2022-11-20T12:01:24;50.83;;;32.15;;
76167;SDS011;64927;48.214;16.378;2022-11-20T12:06:47;49.25;;;32.80;;
76167;SDS011;64927;48.214;16.378;2022-11-20T12:09:18;51.03;;;32.83;;
76167;SDS011;64927;48.214;16.378;2022-11-20T12:11:54;51.58;;;33.13;;
76167;SDS011;64927;48.214;16.378;2022-11-20T12:14:37;45.78;;;31.90;;
76167;SDS011;64927;48.214;16.378;2022-11-20T12:17:04;50.63;;;33.25;;
76167;SDS011;64927;48.214;16.378;2022-11-20T12:19:35;48.55;;;33.30;;
76167;SDS011;64927;48.214;16.378;2022-11-20T12:30:08;45.97;;;31.42;;
76167;SDS011;64927;48.214;16.378;2022-11-20T12:47:36;50.85;;;33.35;;
76167;SDS011;64927;48.214;16.378;2022-11-20T12:52:33;51.00;;;32.28;;
76167;SDS011;64927;48.214;16.378;2022-11-20T12:55:13;47.88;;;31.40;;
76167;SDS011;64927;48.214;16.378;2022-11-20T13:00:25;48.53;;;31.85;;
76167;SDS011;64927;48.214;16.378;2022-11-20T13:08:02;48.17;;;31.30;;
76167;SDS011;64927;48.214;16.378;2022-11-20T13:13:08;52.67;;;33.25;;
76167;SDS011;64927;48.214;16.378;2022-11-20T13:15:58;47.50;;;30.77;;
76167;SDS011;64927;48.214;16.378;2022-11-20T13:18:42;46.78;;;30.70;;
76167;SDS011;64927;48.214;16.378;2022-11-20T13:23:44;44.00;;;29.25;;
76167;SDS011;64927;48.214;16.378;2022-11-20T13:26:17;45.17;;;29.67;;
76167;SDS011;64927;48.214;16.378;2022-11-20T13:28:46;42.05;;;30.05;;
76167;SDS011;64927;48.214;16.378;2022-11-20T13:34:09;42.28;;;29.23;;
76167;SDS011;64927;48.214;16.378;2022-11-20T13:36:48;46.65;;;30.80;;
76167;SDS011;64927;48.214;16.378;2022-11-20T13:39:25;44.08;;;28.73;;
76167;SDS011;64927;48.214;16.378;2022-11-20T13:42:00;45.72;;;29.77;;
76167;SDS011;64927;48.214;16.378;2022-11-20T13:47:23;45.08;;;30.33;;
76167;SDS011;64927;48.214;16.378;2022-11-20T13:49:51;45.03;;;29.80;;
76167;SDS011;64927;48.214;16.378;2022-11-20T13:55:02;45.40;;;29.70;;
76167;SDS011;64927;48.214;16.378;2022-11-20T13:57:40;40.17;;;28.90;;
76167;SDS011;64927;48.214;16.378;2022-11-20T14:02:44;43.25;;;27.75;;
76167;SDS011;64927;48.214;16.378;2022-11-20T14:05:46;43.53;;;28.42;;
76167;SDS011;64927;48.214;16.378;2022-11-20T14:08:39;48.35;;;32.22;;
76167;SDS011;64927;48.214;16.378;2022-11-20T14:11:17;52.20;;;31.27;;
76167;SDS011;64927;48.214;16.378;2022-11-20T14:16:33;45.50;;;30.55;;
76167;SDS011;64927;48.214;16.378;2022-11-20T14:21:45;45.38;;;29.95;;
76167;SDS011;64927;48.214;16.378;2022-11-20T14:24:20;43.78;;;29.25;;
76167;SDS011;64927;48.214;16.378;2022-11-20T14:26:48;43.47;;;29.50;;
76167;SDS011;64927;48.214;16.378;2022-11-20T14:29:21;47.17;;;29.77;;
76167;SDS011;64927;48.214;16.378;2022-11-20T14:31:52;45.72;;;27.98;;
76167;SDS011;64927;48.214;16.378;2022-11-20T14:34:23;43.33;;;28.30;;
76167;SDS011;64927;48.214;16.378;2022-11-20T14:36:52;47.08;;;28.00;;
76167;SDS011;64927;48.214;16.378;2022-11-20T14:39:30;42.92;;;29.33;;
76167;SDS011;64927;48.214;16.378;2022-11-20T14:42:01;40.13;;;28.92;;
76167;SDS011;64927;48.214;16.378;2022-11-20T14:44:40;45.80;;;28.63;;
76167;SDS011;64927;48.214;16.378;2022-11-20T14:47:10;47.17;;;29.70;;
76167;SDS011;64927;48.214;16.378;2022-11-20T14:49:42;48.55;;;29.98;;
76167;SDS011;64927;48.214;16.378;2022-11-20T14:52:15;43.78;;;28.77;;
76167;SDS011;64927;48.214;16.378;2022-11-20T14:54:45;45.00;;;30.38;;
76167;SDS011;64927;48.214;16.378;2022-11-20T14:59:49;47.13;;;30.73;;
76167;SDS011;64927;48.214;16.378;2022-11-20T15:02:18;45.33;;;30.88;;
76167;SDS011;64927;48.214;16.378;2022-11-20T15:04:47;44.83;;;28.58;;
76167;SDS011;64927;48.214;16.378;2022-11-20T15:07:35;45.38;;;29.40;;
76167;SDS011;64927;48.214;16.378;2022-11-20T15:10:09;43.17;;;29.58;;
76167;SDS011;64927;48.214;16.378;2022-11-20T15:12:40;47.33;;;29.45;;
76167;SDS011;64927;48.214;16.378;2022-11-20T15:18:13;47.53;;;29.73;;
76167;SDS011;64927;48.214;16.378;2022-11-20T15:20:41;47.10;;;29.90;;
76167;SDS011;64927;48.214;16.378;2022-11-20T15:23:12;42.63;;;28.75;;
76167;SDS011;64927;48.214;16.378;2022-11-20T15:25:42;45.08;;;29.00;;
76167;SDS011;64927;48.214;16.378;2022-11-20T15:28:12;44.70;;;28.92;;
76167;SDS011;64927;48.214;16.378;2022-11-20T15:30:54;44.20;;;28.98;;
76167;SDS011;64927;48.214;16.378;2022-11-20T15:33:21;48.85;;;31.00;;
76167;SDS011;64927;48.214;16.378;2022-11-20T15:35:47;48.17;;;31.17;;
76167;SDS011;64927;48.214;16.378;2022-11-20T15:38:13;47.00;;;30.52;;
76167;SDS011;64927;48.214;16.378;2022-11-20T15:40:39;48.58;;;29.75;;
76167;SDS011;64927;48.214;16.378;2022-11-20T15:43:06;48.53;;;33.33;;
76167;SDS011;64927;48.214;16.378;2022-11-20T15:45:33;49.28;;;32.55;;
76167;SDS011;64927;48.214;16.378;2022-11-20T15:48:07;53.83;;;35.53;;
76167;SDS011;64927;48.214;16.378;2022-11-20T15:50:57;60.03;;;34.42;;
76167;SDS011;64927;48.214;16.378;2022-11-20T15:53:36;53.10;;;33.72;;
76167;SDS011;64927;48.214;16.378;2022-11-20T15:56:06;53.40;;;34.58;;
76167;SDS011;64927;48.214;16.378;2022-11-20T15:58:37;64.43;;;38.83;;
76167;SDS011;64927;48.214;16.378;2022-11-20T16:01:04;72.53;;;42.72;;
76167;SDS011;64927;48.214;16.378;2022-11-20T16:03:30;69.30;;;44.30;;
76167;SDS011;64927;48.214;16.378;2022-11-20T16:05:56;66.95;;;42.13;;